Time;durP1;ratioP1;P1;durP2;ratioP2;P2;SDS_P1;SDS_P2;PMS_P1;PMS_P2;Temp;Humidity;BMP_temperature;BMP_pressure;BME280_temperature;BME280_humidity;BME280_pressure;Samples;Min_cycle;Max_cycle;Signal;HPM_P1;HPM_P2
2023/05/16 00:01:46;;;;;;;2.67;0.80;;;;;;;;;;5059920;27;93950;-56
2023/05/16 00:04:15;;;;;;;1.33;0.27;;;;;;;;;;5059922;27;92062;-56
2023/05/16 00:06:44;;;;;;;0.80;0.57;;;;;;;;;;5061575;27;91235;-56
2023/05/16 00:09:13;;;;;;;6.43;0.63;;;;;;;;;;5060115;27;94134;-56
2023/05/16 00:11:41;;;;;;;4.83;0.80;;;;;;;;;;5060082;27;93792;-57
2023/05/16 00:14:10;;;;;;;0.93;0.40;;;;;;;;;;5059631;27;93047;-56
2023/05/16 00:16:40;;;;;;;0.30;0.30;;;;;;;;;;5060339;27;93263;-56
2023/05/16 00:19:09;;;;;;;3.53;0.50;;;;;;;;;;5059964;27;94153;-57
2023/05/16 00:21:37;;;;;;;0.40;0.30;;;;;;;;;;5060630;27;93547;-57
2023/05/16 00:27:21;;;;;;;3.03;0.40;;;;;;;;;;5059919;27;92062;-56
2023/05/16 00:29:49;;;;;;;1.60;0.40;;;;;;;;;;5059915;27;93276;-57
2023/05/16 00:32:18;;;;;;;2.33;0.80;;;;;;;;;;5060385;27;93891;-56
2023/05/16 00:34:47;;;;;;;0.20;0.20;;;;;;;;;;5060009;27;92186;-56
2023/05/16 00:37:15;;;;;;;1.40;0.67;;;;;;;;;;5060608;27;92010;-57
2023/05/16 00:39:43;;;;;;;7.43;0.60;;;;;;;;;;5057720;27;95004;-56
2023/05/16 00:42:12;;;;;;;0.30;0.30;;;;;;;;;;5059766;27;94929;-56
2023/05/16 00:44:41;;;;;;;3.40;0.63;;;;;;;;;;5060031;27;92000;-56
2023/05/16 00:47:10;;;;;;;1.90;0.73;;;;;;;;;;5060163;27;91996;-56
2023/05/16 00:49:38;;;;;;;1.80;0.93;;;;;;;;;;5059074;27;94212;-56
2023/05/16 00:52:06;;;;;;;2.63;0.73;;;;;;;;;;5060122;27;93893;-56
2023/05/16 00:54:35;;;;;;;4.60;1.13;;;;;;;;;;5060052;27;93637;-56
2023/05/16 00:57:11;;;;;;;2.33;0.60;;;;;;;;;;5060550;27;91922;-56
2023/05/16 00:59:45;;;;;;;2.23;0.70;;;;;;;;;;5059466;27;93245;-57
2023/05/16 01:02:13;;;;;;;1.77;0.30;;;;;;;;;;5059756;27;94086;-56
2023/05/16 01:04:42;;;;;;;3.43;0.67;;;;;;;;;;5059102;27;93035;-56
2023/05/16 01:07:10;;;;;;;1.03;0.67;;;;;;;;;;5059317;27;92117;-56
2023/05/16 01:09:39;;;;;;;2.03;0.30;;;;;;;;;;5059669;27;93093;-56
2023/05/16 01:12:10;;;;;;;0.60;0.40;;;;;;;;;;5059434;27;92817;-56
2023/05/16 01:14:39;;;;;;;5.20;0.63;;;;;;;;;;5059828;27;92096;-56
2023/05/16 01:17:10;;;;;;;0.63;0.40;;;;;;;;;;5059760;27;91951;-56
2023/05/16 01:19:46;;;;;;;1.23;0.70;;;;;;;;;;5058571;27;94142;-57
2023/05/16 01:22:18;;;;;;;0.30;0.30;;;;;;;;;;5059719;27;92850;-56
2023/05/16 01:24:50;;;;;;;0.40;0.40;;;;;;;;;;5059665;27;92055;-57
2023/05/16 01:27:21;;;;;;;0.30;0.30;;;;;;;;;;5059492;27;92051;-56
2023/05/16 01:29:49;;;;;;;0.50;0.30;;;;;;;;;;5058465;27;95134;-56
2023/05/16 01:32:19;;;;;;;0.60;0.30;;;;;;;;;;5059115;27;94964;-56
2023/05/16 01:34:47;;;;;;;0.83;0.60;;;;;;;;;;5059338;27;92156;-56
2023/05/16 01:37:17;;;;;;;0.30;0.30;;;;;;;;;;5059471;27;92150;-56
2023/05/16 01:39:46;;;;;;;1.00;0.40;;;;;;;;;;5059003;27;94253;-56
2023/05/16 01:42:15;;;;;;;2.93;0.70;;;;;;;;;;5058727;27;93859;-56
2023/05/16 01:44:47;;;;;;;0.20;0.20;;;;;;;;;;5059261;27;92059;-56
2023/05/16 01:47:16;;;;;;;2.53;0.40;;;;;;;;;;5059298;27;91369;-56
2023/05/16 01:49:46;;;;;;;2.07;0.40;;;;;;;;;;5059411;27;94129;-56
2023/05/16 01:52:15;;;;;;;2.23;0.50;;;;;;;;;;5062204;27;92593;-56
2023/05/16 01:54:44;;;;;;;4.43;0.50;;;;;;;;;;5062580;27;92928;-56
2023/05/16 01:57:13;;;;;;;1.57;0.60;;;;;;;;;;5062365;27;92085;-56
2023/05/16 01:59:41;;;;;;;0.20;0.20;;;;;;;;;;5061790;27;94136;-56
2023/05/16 02:02:11;;;;;;;5.30;0.67;;;;;;;;;;5061874;27;92680;-56
2023/05/16 02:04:39;;;;;;;0.77;0.43;;;;;;;;;;5062470;27;92144;-56
2023/05/16 02:07:08;;;;;;;1.90;0.57;;;;;;;;;;5062512;27;92066;-56
2023/05/16 02:09:36;;;;;;;0.77;0.37;;;;;;;;;;5062625;27;94165;-56
2023/05/16 02:12:05;;;;;;;2.23;0.73;;;;;;;;;;5062621;27;92804;-56
2023/05/16 02:14:33;;;;;;;1.13;0.47;;;;;;;;;;5062342;27;91901;-56
2023/05/16 02:17:01;;;;;;;0.30;0.30;;;;;;;;;;5062663;27;92132;-56
2023/05/16 02:19:31;;;;;;;0.10;0.10;;;;;;;;;;5061818;27;95127;-56
2023/05/16 02:21:59;;;;;;;1.43;0.30;;;;;;;;;;5061964;27;94801;-56
2023/05/16 02:24:28;;;;;;;2.63;0.30;;;;;;;;;;5062948;27;92090;-56
2023/05/16 02:26:56;;;;;;;1.17;0.47;;;;;;;;;;5062566;27;92049;-56
2023/05/16 02:29:24;;;;;;;0.73;0.30;;;;;;;;;;5061737;27;94261;-56
2023/05/16 02:31:53;;;;;;;1.73;0.80;;;;;;;;;;5061915;27;93946;-56
2023/05/16 02:34:21;;;;;;;1.50;0.30;;;;;;;;;;5062328;27;92559;-56
2023/05/16 02:36:51;;;;;;;0.20;0.20;;;;;;;;;;5062771;27;91271;-56
2023/05/16 02:39:19;;;;;;;0.53;0.53;;;;;;;;;;5061143;27;93262;-56
2023/05/16 02:41:48;;;;;;;2.53;0.47;;;;;;;;;;5061343;27;93849;-56
2023/05/16 02:44:16;;;;;;;0.67;0.67;;;;;;;;;;5061827;27;93067;-57
2023/05/16 02:46:45;;;;;;;0.97;0.60;;;;;;;;;;5061421;27;93720;-56
2023/05/16 02:49:14;;;;;;;0.23;0.23;;;;;;;;;;5062054;27;94123;-56
2023/05/16 02:51:42;;;;;;;0.20;0.20;;;;;;;;;;5061289;27;93635;-56
2023/05/16 02:54:12;;;;;;;1.83;0.67;;;;;;;;;;5062262;27;92119;-56
2023/05/16 02:56:40;;;;;;;1.23;0.33;;;;;;;;;;5061606;27;91844;-56
2023/05/16 02:59:09;;;;;;;1.70;0.40;;;;;;;;;;5061508;27;94229;-56
2023/05/16 03:01:37;;;;;;;1.40;0.60;;;;;;;;;;5061075;27;92761;-56
2023/05/16 03:04:05;;;;;;;0.43;0.43;;;;;;;;;;5062037;27;92121;-56
2023/05/16 03:06:34;;;;;;;0.53;0.53;;;;;;;;;;5062065;27;91987;-56
2023/05/16 03:09:02;;;;;;;0.40;0.30;;;;;;;;;;5060899;27;94130;-56
2023/05/16 03:11:32;;;;;;;1.07;0.30;;;;;;;;;;5060961;27;94858;-56
2023/05/16 03:14:01;;;;;;;0.37;0.37;;;;;;;;;;5061600;27;92062;-56
2023/05/16 03:16:29;;;;;;;1.07;0.53;;;;;;;;;;5061579;27;91947;-56
2023/05/16 03:18:57;;;;;;;2.17;0.80;;;;;;;;;;5061229;27;94119;-56
2023/05/16 03:21:26;;;;;;;1.80;0.60;;;;;;;;;;5053551;27;94045;-56
2023/05/16 03:23:54;;;;;;;1.60;0.53;;;;;;;;;;5061386;27;91960;-56
2023/05/16 03:26:23;;;;;;;1.70;0.53;;;;;;;;;;5061608;27;91286;-56
2023/05/16 03:28:53;;;;;;;1.87;0.30;;;;;;;;;;5060396;27;94345;-56
2023/05/16 03:31:21;;;;;;;1.40;0.50;;;;;;;;;;5060786;27;93743;-56
2023/05/16 03:33:50;;;;;;;0.83;0.40;;;;;;;;;;5060741;27;92992;-56
2023/05/16 03:36:18;;;;;;;0.40;0.23;;;;;;;;;;5061201;27;92154;-56
2023/05/16 03:38:46;;;;;;;1.80;0.57;;;;;;;;;;5060790;27;93990;-56
2023/05/16 03:41:14;;;;;;;1.50;0.20;;;;;;;;;;5060889;27;92924;-56
2023/05/16 03:43:43;;;;;;;0.53;0.40;;;;;;;;;;5061523;27;92132;-56
2023/05/16 03:46:12;;;;;;;1.03;0.30;;;;;;;;;;5061161;27;92124;-56
2023/05/16 03:48:41;;;;;;;0.50;0.47;;;;;;;;;;5060377;27;94062;-56
2023/05/16 03:51:10;;;;;;;0.47;0.47;;;;;;;;;;5060999;27;92809;-56
2023/05/16 03:53:38;;;;;;;3.13;0.83;;;;;;;;;;5061193;27;92048;-56
2023/05/16 03:56:06;;;;;;;1.17;0.57;;;;;;;;;;5060568;27;92006;-57
2023/05/16 03:58:35;;;;;;;0.90;0.40;;;;;;;;;;5060369;27;94018;-56
2023/05/16 04:01:03;;;;;;;2.17;0.30;;;;;;;;;;5060176;27;94962;-56
2023/05/16 04:03:33;;;;;;;2.10;0.57;;;;;;;;;;5060659;27;91999;-56
2023/05/16 04:06:01;;;;;;;2.07;0.30;;;;;;;;;;5060516;27;92109;-56
2023/05/16 04:08:30;;;;;;;0.60;0.37;;;;;;;;;;5060085;27;93301;-56
2023/05/16 04:10:58;;;;;;;2.80;0.40;;;;;;;;;;5060395;27;93606;-56
2023/05/16 04:13:26;;;;;;;0.40;0.30;;;;;;;;;;5059029;27;92108;-56
2023/05/16 04:15:54;;;;;;;1.03;0.50;;;;;;;;;;5060301;27;91327;-56
2023/05/16 04:18:23;;;;;;;0.60;0.60;;;;;;;;;;5059545;27;92988;-56
2023/05/16 04:20:52;;;;;;;1.07;0.20;;;;;;;;;;5060403;27;93890;-56
2023/05/16 04:23:21;;;;;;;0.50;0.50;;;;;;;;;;5060233;27;92886;-56
2023/05/16 04:25:49;;;;;;;4.70;0.43;;;;;;;;;;5060121;27;92080;-56
2023/05/16 04:28:18;;;;;;;0.47;0.40;;;;;;;;;;5058075;27;94109;-57
2023/05/16 04:30:46;;;;;;;0.83;0.30;;;;;;;;;;5059505;27;93918;-57
2023/05/16 04:33:15;;;;;;;0.60;0.60;;;;;;;;;;5060063;27;92074;-56
2023/05/16 04:35:44;;;;;;;0.77;0.77;;;;;;;;;;5059895;27;92043;-57
2023/05/16 04:38:13;;;;;;;1.30;0.40;;;;;;;;;;5060338;27;94161;-56
2023/05/16 04:40:42;;;;;;;0.90;0.50;;;;;;;;;;5057307;27;93933;-57
2023/05/16 04:43:10;;;;;;;0.77;0.30;;;;;;;;;;5060205;27;92117;-57
2023/05/16 04:45:38;;;;;;;0.77;0.57;;;;;;;;;;5059838;27;92115;-56
2023/05/16 04:48:07;;;;;;;0.73;0.37;;;;;;;;;;5052469;27;94886;-56
2023/05/16 04:50:35;;;;;;;0.30;0.30;;;;;;;;;;5039587;27;94901;-56
2023/05/16 04:53:04;;;;;;;2.77;0.97;;;;;;;;;;5039670;28;92057;-56
2023/05/16 04:55:33;;;;;;;0.90;0.40;;;;;;;;;;5040053;27;91939;-56
2023/05/16 04:58:02;;;;;;;3.70;0.60;;;;;;;;;;5057635;27;94197;-57
2023/05/16 05:00:30;;;;;;;5.20;0.50;;;;;;;;;;5059196;27;94023;-57
2023/05/16 05:02:59;;;;;;;0.20;0.20;;;;;;;;;;5059145;27;92067;-56
2023/05/16 05:05:27;;;;;;;0.57;0.50;;;;;;;;;;5060016;27;91443;-56
2023/05/16 05:07:56;;;;;;;0.57;0.57;;;;;;;;;;5059619;27;94439;-56
2023/05/16 05:10:26;;;;;;;0.80;0.50;;;;;;;;;;5059282;27;93936;-56
2023/05/16 05:12:56;;;;;;;0.33;0.33;;;;;;;;;;5058606;27;92989;-57
2023/05/16 05:15:24;;;;;;;4.57;0.47;;;;;;;;;;5053539;27;92071;-56
2023/05/16 05:17:53;;;;;;;2.93;0.40;;;;;;;;;;5058728;27;93028;-56
2023/05/16 05:20:22;;;;;;;0.80;0.50;;;;;;;;;;5058618;27;92432;-57
2023/05/16 05:22:50;;;;;;;0.80;0.40;;;;;;;;;;5059799;27;92068;-56
2023/05/16 05:25:18;;;;;;;0.83;0.40;;;;;;;;;;5059138;27;92111;-58
2023/05/16 05:27:47;;;;;;;0.67;0.40;;;;;;;;;;5058681;27;94118;-57
2023/05/16 05:30:16;;;;;;;1.30;0.50;;;;;;;;;;5059404;27;93875;-56
2023/05/16 05:32:45;;;;;;;0.97;0.40;;;;;;;;;;5059090;27;92063;-56
2023/05/16 05:35:14;;;;;;;1.70;0.20;;;;;;;;;;5059215;27;92827;-57
2023/05/16 05:37:42;;;;;;;1.53;0.60;;;;;;;;;;5058277;27;95149;-56
2023/05/16 05:40:11;;;;;;;0.60;0.33;;;;;;;;;;5059037;27;93807;-56
2023/05/16 05:42:40;;;;;;;0.63;0.47;;;;;;;;;;5059447;27;92013;-56
2023/05/16 05:45:09;;;;;;;0.50;0.33;;;;;;;;;;5059096;27;92082;-56
2023/05/16 05:47:38;;;;;;;0.20;0.10;;;;;;;;;;5058241;27;92832;-56
2023/05/16 05:50:07;;;;;;;0.10;0.10;;;;;;;;;;5058835;27;94190;-56
2023/05/16 05:52:36;;;;;;;3.33;0.50;;;;;;;;;;5059403;27;91909;-56
2023/05/16 05:55:04;;;;;;;0.27;0.27;;;;;;;;;;5059930;27;91302;-56
2023/05/16 05:57:33;;;;;;;2.93;0.50;;;;;;;;;;5059114;27;94077;-57
2023/05/16 06:00:01;;;;;;;0.30;0.30;;;;;;;;;;5058535;27;93943;-56
2023/05/16 06:02:30;;;;;;;1.63;0.70;;;;;;;;;;5058185;27;93173;-56
2023/05/16 06:04:59;;;;;;;1.10;0.20;;;;;;;;;;5059493;27;92081;-56
2023/05/16 06:07:28;;;;;;;1.10;0.40;;;;;;;;;;5058593;27;94078;-56
2023/05/16 06:09:56;;;;;;;2.27;0.53;;;;;;;;;;5058365;27;92539;-56
2023/05/16 06:12:24;;;;;;;0.67;0.67;;;;;;;;;;5058588;27;93571;-56
2023/05/16 06:14:53;;;;;;;3.23;0.80;;;;;;;;;;5059166;27;92127;-56
2023/05/16 06:17:21;;;;;;;1.03;0.60;;;;;;;;;;5058427;27;93275;-56
2023/05/16 06:19:49;;;;;;;0.63;0.30;;;;;;;;;;5058748;27;93957;-56
2023/05/16 06:22:19;;;;;;;0.77;0.40;;;;;;;;;;5058403;27;91891;-56
2023/05/16 06:24:47;;;;;;;0.20;0.20;;;;;;;;;;5058645;27;92309;-56
2023/05/16 06:27:15;;;;;;;3.23;0.30;;;;;;;;;;5058335;27;93039;-57
2023/05/16 06:29:44;;;;;;;0.60;0.33;;;;;;;;;;5057393;27;94947;-57
2023/05/16 06:32:12;;;;;;;1.20;0.57;;;;;;;;;;5058531;27;91770;-57
2023/05/16 06:34:41;;;;;;;1.07;0.33;;;;;;;;;;5057788;27;92203;-57
2023/05/16 06:37:09;;;;;;;0.97;0.60;;;;;;;;;;5059223;27;93120;-57
2023/05/16 06:39:38;;;;;;;1.50;0.50;;;;;;;;;;5058175;27;94109;-57
2023/05/16 06:42:07;;;;;;;2.47;0.30;;;;;;;;;;5059550;27;92193;-57
2023/05/16 06:44:35;;;;;;;0.40;0.40;;;;;;;;;;5060823;27;91428;-57
2023/05/16 06:47:04;;;;;;;1.93;0.50;;;;;;;;;;5059607;27;94237;-56
2023/05/16 06:49:32;;;;;;;0.70;0.30;;;;;;;;;;5060356;27;94000;-55
2023/05/16 06:52:01;;;;;;;0.23;0.23;;;;;;;;;;5058060;27;92992;-56
2023/05/16 06:54:29;;;;;;;0.60;0.37;;;;;;;;;;5060406;27;92016;-56
2023/05/16 06:56:59;;;;;;;0.60;0.20;;;;;;;;;;5060146;27;93487;-56
2023/05/16 06:59:27;;;;;;;1.27;0.40;;;;;;;;;;5059735;27;94005;-56
2023/05/16 07:01:55;;;;;;;3.60;0.53;;;;;;;;;;5061194;27;92091;-56
2023/05/16 07:04:24;;;;;;;0.97;0.20;;;;;;;;;;5059989;27;92162;-56
2023/05/16 07:06:52;;;;;;;0.83;0.43;;;;;;;;;;5059045;27;94167;-55
2023/05/16 07:09:21;;;;;;;2.90;0.90;;;;;;;;;;5060005;27;93868;-56
2023/05/16 07:11:49;;;;;;;0.40;0.40;;;;;;;;;;5060422;27;92154;-56
2023/05/16 07:14:19;;;;;;;0.27;0.27;;;;;;;;;;5058273;27;92055;-56
2023/05/16 07:16:47;;;;;;;0.63;0.40;;;;;;;;;;5059211;27;93051;-56
2023/05/16 07:19:16;;;;;;;3.10;0.40;;;;;;;;;;5059724;27;95180;-56
2023/05/16 07:21:44;;;;;;;1.27;0.40;;;;;;;;;;5061394;27;92032;-55
2023/05/16 07:24:12;;;;;;;0.30;0.30;;;;;;;;;;5060259;27;92093;-54
2023/05/16 07:26:41;;;;;;;0.40;0.40;;;;;;;;;;5059401;27;94419;-54
2023/05/16 07:29:09;;;;;;;10.00;0.93;;;;;;;;;;5058302;27;93845;-54
2023/05/16 07:31:39;;;;;;;0.87;0.27;;;;;;;;;;5060298;27;92190;-54
2023/05/16 07:34:08;;;;;;;0.23;0.23;;;;;;;;;;5060380;27;91353;-54
2023/05/16 07:36:36;;;;;;;0.93;0.30;;;;;;;;;;5059846;27;92066;-54
2023/05/16 07:39:04;;;;;;;0.30;0.30;;;;;;;;;;5059167;27;92934;-54
2023/05/16 07:41:33;;;;;;;1.90;0.67;;;;;;;;;;5058978;27;92906;-54
2023/05/16 07:44:01;;;;;;;0.33;0.33;;;;;;;;;;5059902;27;91905;-54
2023/05/16 07:46:29;;;;;;;0.30;0.30;;;;;;;;;;5059616;27;93288;-55
2023/05/16 07:49:00;;;;;;;0.10;0.10;;;;;;;;;;5056363;27;93518;-54
2023/05/16 07:51:29;;;;;;;3.37;0.30;;;;;;;;;;5059420;27;92169;-54
2023/05/16 07:53:57;;;;;;;1.07;0.33;;;;;;;;;;5059494;27;92182;-54
2023/05/16 07:56:25;;;;;;;0.77;0.33;;;;;;;;;;5059089;27;93287;-54
2023/05/16 07:58:54;;;;;;;1.03;0.23;;;;;;;;;;5059577;27;94155;-54
2023/05/16 08:01:22;;;;;;;2.23;0.20;;;;;;;;;;5061149;27;92186;-54
2023/05/16 08:03:52;;;;;;;0.90;0.40;;;;;;;;;;5057107;27;92061;-54
2023/05/16 08:06:22;;;;;;;0.97;0.33;;;;;;;;;;5059925;27;95098;-54
2023/05/16 08:08:50;;;;;;;0.37;0.37;;;;;;;;;;5060714;27;93957;-54
2023/05/16 08:11:21;;;;;;;0.20;0.20;;;;;;;;;;5061213;27;92020;-54
2023/05/16 08:13:49;;;;;;;0.23;0.20;;;;;;;;;;5060586;27;92082;-54
2023/05/16 08:16:18;;;;;;;2.03;0.43;;;;;;;;;;5060300;27;94230;-54
2023/05/16 08:18:46;;;;;;;0.20;0.20;;;;;;;;;;5059976;27;93677;-54
2023/05/16 08:21:15;;;;;;;1.07;0.50;;;;;;;;;;5060946;27;92015;-54
2023/05/16 08:23:45;;;;;;;0.40;0.40;;;;;;;;;;5061190;27;91847;-54
2023/05/16 08:26:13;;;;;;;0.73;0.50;;;;;;;;;;5060219;27;93304;-55
2023/05/16 08:28:42;;;;;;;0.70;0.30;;;;;;;;;;5060623;27;93952;-55
2023/05/16 08:31:10;;;;;;;2.30;0.60;;;;;;;;;;5060331;27;93001;-54
2023/05/16 08:33:38;;;;;;;0.37;0.37;;;;;;;;;;5061041;27;92100;-54
2023/05/16 08:36:07;;;;;;;0.33;0.20;;;;;;;;;;5060356;27;94169;-54
2023/05/16 08:38:35;;;;;;;0.13;0.13;;;;;;;;;;5054661;27;94075;-54
2023/05/16 08:41:05;;;;;;;3.47;0.30;;;;;;;;;;5060458;27;92046;-54
2023/05/16 08:43:35;;;;;;;0.53;0.53;;;;;;;;;;5060205;27;92122;-54
2023/05/16 08:46:03;;;;;;;0.40;0.40;;;;;;;;;;5039460;28;94197;-54
2023/05/16 08:48:32;;;;;;;2.60;0.40;;;;;;;;;;5039741;27;93807;-55
2023/05/16 08:51:00;;;;;;;0.30;0.30;;;;;;;;;;5039611;28;92120;-54
2023/05/16 08:53:31;;;;;;;0.70;0.20;;;;;;;;;;5045674;27;92126;-54
2023/05/16 08:55:59;;;;;;;0.30;0.30;;;;;;;;;;5049082;27;95311;-54
2023/05/16 08:58:29;;;;;;;1.43;0.63;;;;;;;;;;5059387;27;93672;-54
2023/05/16 09:00:58;;;;;;;0.57;0.57;;;;;;;;;;5053490;27;92316;-54
2023/05/16 09:03:27;;;;;;;0.20;0.20;;;;;;;;;;5059189;27;91994;-54
2023/05/16 09:05:56;;;;;;;0.20;0.20;;;;;;;;;;5059777;27;93115;-54
2023/05/16 09:08:25;;;;;;;0.93;0.50;;;;;;;;;;5053792;27;93888;-54
2023/05/16 09:10:53;;;;;;;0.30;0.30;;;;;;;;;;5039553;27;92101;-54
2023/05/16 09:13:21;;;;;;;1.83;0.30;;;;;;;;;;5041725;27;91345;-54
2023/05/16 09:16:05;;;;;;;0.23;0.20;;;;;;;;;;5059365;27;94394;-54
2023/05/16 09:18:35;;;;;;;0.50;0.43;;;;;;;;;;5059118;27;93995;-54
2023/05/16 09:21:03;;;;;;;0.20;0.20;;;;;;;;;;5058532;27;93016;-55
2023/05/16 09:23:32;;;;;;;0.30;0.30;;;;;;;;;;5059752;27;92041;-54
2023/05/16 09:26:03;;;;;;;0.40;0.40;;;;;;;;;;5049015;27;94272;-55
2023/05/16 09:28:32;;;;;;;2.10;0.53;;;;;;;;;;5057716;27;92913;-55
2023/05/16 09:31:01;;;;;;;1.53;0.50;;;;;;;;;;5046451;27;92558;-55
2023/05/16 09:33:29;;;;;;;0.20;0.20;;;;;;;;;;5052973;27;93895;-55
2023/05/16 09:36:00;;;;;;;3.40;0.40;;;;;;;;;;5048784;27;94413;-54
2023/05/16 09:38:29;;;;;;;1.07;0.30;;;;;;;;;;5051103;27;93915;-55
2023/05/16 09:40:57;;;;;;;0.53;0.33;;;;;;;;;;5039689;27;92118;-55
2023/05/16 09:43:26;;;;;;;1.23;0.40;;;;;;;;;;5047475;27;92031;-54
2023/05/16 09:45:55;;;;;;;0.10;0.10;;;;;;;;;;5048156;27;95155;-54
2023/05/16 09:48:27;;;;;;;0.20;0.20;;;;;;;;;;5054029;27;94655;-54
2023/05/16 09:50:58;;;;;;;1.97;0.43;;;;;;;;;;5040349;27;92154;-54
2023/05/16 09:53:32;;;;;;;1.40;0.27;;;;;;;;;;5042031;27;92190;-54
2023/05/16 09:56:01;;;;;;;1.63;0.30;;;;;;;;;;5050643;27;94102;-55
2023/05/16 09:58:30;;;;;;;0.93;0.23;;;;;;;;;;5045251;27;93764;-53
2023/05/16 10:00:58;;;;;;;0.47;0.47;;;;;;;;;;5040517;27;92135;-54
2023/05/16 10:03:27;;;;;;;0.20;0.20;;;;;;;;;;5039172;27;91430;-55
2023/05/16 10:05:55;;;;;;;1.40;0.50;;;;;;;;;;5052511;27;94311;-56
2023/05/16 10:08:24;;;;;;;0.37;0.37;;;;;;;;;;5058272;27;93871;-54
2023/05/16 10:10:55;;;;;;;0.20;0.20;;;;;;;;;;5060089;27;92986;-56
2023/05/16 10:13:24;;;;;;;0.87;0.30;;;;;;;;;;5062791;27;92829;-54
2023/05/16 10:15:52;;;;;;;0.20;0.20;;;;;;;;;;5062084;27;94271;-54
2023/05/16 10:18:22;;;;;;;0.50;0.40;;;;;;;;;;5061993;27;93885;-54
2023/05/16 10:20:52;;;;;;;0.30;0.30;;;;;;;;;;5062758;27;91911;-54
2023/05/16 10:23:21;;;;;;;0.30;0.30;;;;;;;;;;5063061;27;92047;-54
2023/05/16 10:25:49;;;;;;;0.57;0.37;;;;;;;;;;5062533;27;93302;-54
2023/05/16 10:28:19;;;;;;;0.50;0.50;;;;;;;;;;5062772;27;93986;-54
2023/05/16 10:30:47;;;;;;;1.40;0.30;;;;;;;;;;5059493;27;92044;-55
2023/05/16 10:33:16;;;;;;;1.00;0.30;;;;;;;;;;5051405;27;92043;-53
2023/05/16 10:35:45;;;;;;;0.30;0.30;;;;;;;;;;5041029;28;94068;-53
2023/05/16 10:38:14;;;;;;;0.60;0.40;;;;;;;;;;5041240;27;93935;-55
2023/05/16 10:40:42;;;;;;;0.50;0.20;;;;;;;;;;5041820;27;91957;-54
2023/05/16 10:43:10;;;;;;;0.23;0.23;;;;;;;;;;5042025;28;92010;-53
2023/05/16 10:45:41;;;;;;;0.30;0.30;;;;;;;;;;5041714;28;94221;-54
2023/05/16 10:48:10;;;;;;;1.67;0.50;;;;;;;;;;5039820;28;93778;-54
2023/05/16 10:50:40;;;;;;;0.53;0.33;;;;;;;;;;5042222;27;92040;-53
2023/05/16 10:53:12;;;;;;;4.70;0.73;;;;;;;;;;5042296;28;91308;-54
2023/05/16 10:55:41;;;;;;;1.10;0.50;;;;;;;;;;5041540;28;93258;-54
2023/05/16 10:58:09;;;;;;;0.40;0.30;;;;;;;;;;5041649;27;93857;-54
2023/05/16 11:00:37;;;;;;;0.50;0.40;;;;;;;;;;5040769;27;93019;-53
2023/05/16 11:03:07;;;;;;;1.60;0.50;;;;;;;;;;5041811;27;92082;-53
2023/05/16 11:05:36;;;;;;;1.20;0.60;;;;;;;;;;5041213;28;92093;-55
2023/05/16 11:08:04;;;;;;;0.43;0.30;;;;;;;;;;5041079;27;93972;-54
2023/05/16 11:10:33;;;;;;;0.57;0.50;;;;;;;;;;5041475;28;91986;-53
2023/05/16 11:13:03;;;;;;;0.27;0.27;;;;;;;;;;5041499;28;92115;-54
2023/05/16 11:15:33;;;;;;;1.80;0.30;;;;;;;;;;5041072;28;94444;-54
2023/05/16 11:18:05;;;;;;;0.77;0.40;;;;;;;;;;5041563;28;92784;-54
2023/05/16 11:20:35;;;;;;;0.40;0.40;;;;;;;;;;5041094;28;92062;-54
2023/05/16 11:23:22;;;;;;;2.20;0.40;;;;;;;;;;5040826;28;92097;-54
2023/05/16 11:25:53;;;;;;;0.50;0.40;;;;;;;;;;5040535;28;94226;-56
2023/05/16 11:28:21;;;;;;;0.93;0.30;;;;;;;;;;5040921;27;95108;-56
2023/05/16 11:30:50;;;;;;;0.47;0.40;;;;;;;;;;5040830;27;92865;-54
2023/05/16 11:33:19;;;;;;;4.37;0.60;;;;;;;;;;5041144;28;93033;-54
2023/05/16 11:36:01;;;;;;;0.88;0.43;;;;;;;;;;5040303;28;94044;-50
2023/05/16 11:38:43;;;;;;;1.33;0.60;;;;;;;;;;5040702;28;93937;-49
2023/05/16 11:41:14;;;;;;;0.53;0.50;;;;;;;;;;5041484;28;91920;-49
2023/05/16 11:43:43;;;;;;;1.67;0.47;;;;;;;;;;5041663;28;91374;-48
2023/05/16 11:46:12;;;;;;;0.90;0.33;;;;;;;;;;5040382;28;94191;-40
2023/05/16 11:48:41;;;;;;;5.40;0.50;;;;;;;;;;5040067;28;93648;-39
2023/05/16 11:51:11;;;;;;;1.40;0.50;;;;;;;;;;5040594;28;92978;-40
2023/05/16 11:53:39;;;;;;;3.97;0.70;;;;;;;;;;5040598;28;91939;-40
2023/05/16 11:56:08;;;;;;;1.80;0.37;;;;;;;;;;5040668;28;94138;-46
2023/05/16 11:58:37;;;;;;;0.93;0.53;;;;;;;;;;5040396;28;94050;-45
2023/05/16 12:01:06;;;;;;;0.13;0.13;;;;;;;;;;5040649;28;92054;-46
2023/05/16 12:03:35;;;;;;;1.50;0.67;;;;;;;;;;5040744;28;92064;-46
2023/05/16 12:06:04;;;;;;;2.10;0.20;;;;;;;;;;5040064;27;93139;-46
2023/05/16 12:08:34;;;;;;;6.53;0.37;;;;;;;;;;5040757;27;93884;-45
2023/05/16 12:11:03;;;;;;;0.33;0.33;;;;;;;;;;5040455;28;91958;-48
2023/05/16 12:13:31;;;;;;;1.27;0.47;;;;;;;;;;5051839;27;92215;-50
2023/05/16 12:15:59;;;;;;;0.40;0.40;;;;;;;;;;5060139;27;95208;-52
2023/05/16 12:18:28;;;;;;;0.60;0.20;;;;;;;;;;5060187;27;94942;-53
2023/05/16 12:20:56;;;;;;;0.60;0.43;;;;;;;;;;5061003;27;91752;-53
2023/05/16 12:23:24;;;;;;;0.43;0.30;;;;;;;;;;5060770;27;91936;-49
2023/05/16 12:25:56;;;;;;;4.63;0.43;;;;;;;;;;5059694;27;93037;-47
2023/05/16 12:28:24;;;;;;;0.70;0.40;;;;;;;;;;5060021;27;92860;-47
2023/05/16 12:30:53;;;;;;;2.33;0.80;;;;;;;;;;5060578;27;92059;-55
2023/05/16 12:33:21;;;;;;;2.53;0.40;;;;;;;;;;5060795;27;91177;-57
2023/05/16 12:35:51;;;;;;;1.37;0.57;;;;;;;;;;5059000;27;94152;-58
2023/05/16 12:38:20;;;;;;;0.80;0.60;;;;;;;;;;5060052;27;91951;-59
2023/05/16 12:40:48;;;;;;;1.70;0.50;;;;;;;;;;5060374;27;93285;-58
2023/05/16 12:43:19;;;;;;;1.20;0.70;;;;;;;;;;5060647;27;91935;-56
2023/05/16 12:45:50;;;;;;;3.20;0.63;;;;;;;;;;5059791;27;94145;-57
2023/05/16 12:48:18;;;;;;;1.23;0.53;;;;;;;;;;5059085;27;93154;-56
2023/05/16 12:50:47;;;;;;;0.67;0.50;;;;;;;;;;5060547;27;91761;-56
2023/05/16 12:53:16;;;;;;;0.73;0.50;;;;;;;;;;5060307;27;92046;-56
2023/05/16 12:55:45;;;;;;;1.00;0.50;;;;;;;;;;5060044;27;94606;-56
2023/05/16 12:58:15;;;;;;;0.40;0.40;;;;;;;;;;5060160;27;92607;-56
2023/05/16 13:00:44;;;;;;;2.53;0.47;;;;;;;;;;5059554;27;92085;-56
2023/05/16 13:03:13;;;;;;;0.20;0.20;;;;;;;;;;5060106;27;92080;-56
2023/05/16 13:05:43;;;;;;;0.93;0.50;;;;;;;;;;5059088;27;93817;-56
2023/05/16 13:08:11;;;;;;;4.33;0.70;;;;;;;;;;5059639;27;94862;-56
2023/05/16 13:10:40;;;;;;;2.00;0.50;;;;;;;;;;5060339;27;91895;-56
2023/05/16 13:13:10;;;;;;;0.53;0.43;;;;;;;;;;5060176;27;92092;-57
2023/05/16 13:15:46;;;;;;;1.10;0.60;;;;;;;;;;5059845;27;93105;-57
2023/05/16 13:18:14;;;;;;;4.70;0.60;;;;;;;;;;5059267;27;92702;-56
2023/05/16 13:20:43;;;;;;;0.67;0.50;;;;;;;;;;5060274;27;91879;-57
2023/05/16 13:23:11;;;;;;;0.80;0.40;;;;;;;;;;5060222;27;91583;-56
2023/05/16 13:25:39;;;;;;;1.17;0.50;;;;;;;;;;5059494;27;94081;-58
2023/05/16 13:28:08;;;;;;;0.73;0.43;;;;;;;;;;5059591;27;93685;-58
2023/05/16 13:30:37;;;;;;;0.53;0.50;;;;;;;;;;5059019;27;93922;-58
2023/05/16 13:33:06;;;;;;;1.70;0.50;;;;;;;;;;5060067;27;92119;-58
2023/05/16 13:35:37;;;;;;;1.67;0.30;;;;;;;;;;5059441;27;94137;-60
2023/05/16 13:38:07;;;;;;;0.57;0.40;;;;;;;;;;5059363;27;94069;-59
2023/05/16 13:40:35;;;;;;;1.57;0.60;;;;;;;;;;5059938;27;92128;-58
2023/05/16 13:43:04;;;;;;;1.20;0.60;;;;;;;;;;5059516;27;92030;-59
2023/05/16 13:45:32;;;;;;;3.60;0.77;;;;;;;;;;5060004;27;94085;-59
2023/05/16 13:48:02;;;;;;;0.43;0.30;;;;;;;;;;5063092;27;93751;-55
2023/05/16 13:50:32;;;;;;;0.63;0.40;;;;;;;;;;5063312;27;92195;-67
2023/05/16 13:53:03;;;;;;;0.37;0.37;;;;;;;;;;5062503;27;92836;-62
2023/05/16 13:55:32;;;;;;;2.37;0.57;;;;;;;;;;5054377;27;95209;-65
2023/05/16 13:58:03;;;;;;;0.30;0.30;;;;;;;;;;5043775;27;94864;-64
2023/05/16 14:00:32;;;;;;;0.30;0.30;;;;;;;;;;5056590;27;92165;-64
2023/05/16 14:03:17;;;;;;;1.20;0.50;;;;;;;;;;5058661;27;91974;-62
2023/05/16 14:05:48;;;;;;;0.20;0.20;;;;;;;;;;5042011;27;94217;-65
2023/05/16 14:08:17;;;;;;;0.40;0.30;;;;;;;;;;5041806;27;93970;-64
2023/05/16 14:10:46;;;;;;;0.33;0.33;;;;;;;;;;5042932;27;91882;-68
2023/05/16 14:13:15;;;;;;;0.50;0.50;;;;;;;;;;5042145;27;91224;-65
2023/05/16 14:15:43;;;;;;;2.33;0.60;;;;;;;;;;5046577;27;94172;-65
2023/05/16 14:18:12;;;;;;;0.57;0.47;;;;;;;;;;5047069;27;93965;-62
2023/05/16 14:20:40;;;;;;;0.30;0.30;;;;;;;;;;5053065;27;93033;-65
2023/05/16 14:23:13;;;;;;;0.40;0.40;;;;;;;;;;5042454;27;92458;-66
2023/05/16 14:25:41;;;;;;;1.80;0.80;;;;;;;;;;5059321;27;94210;-62
2023/05/16 14:28:10;;;;;;;0.43;0.43;;;;;;;;;;5061215;27;94096;-67
2023/05/16 14:30:40;;;;;;;0.77;0.40;;;;;;;;;;5045951;27;92169;-62
2023/05/16 14:33:10;;;;;;;1.17;0.63;;;;;;;;;;5060158;27;92117;-62
2023/05/16 14:35:38;;;;;;;0.30;0.30;;;;;;;;;;5056889;27;94305;-62
2023/05/16 14:38:07;;;;;;;0.40;0.30;;;;;;;;;;5042100;28;93915;-62
2023/05/16 14:40:36;;;;;;;0.23;0.23;;;;;;;;;;5052550;27;91970;-62
2023/05/16 14:43:05;;;;;;;2.40;0.43;;;;;;;;;;5060886;27;93120;-62
2023/05/16 14:45:34;;;;;;;0.30;0.30;;;;;;;;;;5055971;27;95366;-61
2023/05/16 14:48:06;;;;;;;1.03;0.50;;;;;;;;;;5041519;27;95054;-61
2023/05/16 14:50:35;;;;;;;0.73;0.57;;;;;;;;;;5042056;27;92031;-61
2023/05/16 14:53:04;;;;;;;1.40;0.30;;;;;;;;;;5045077;27;92366;-63
2023/05/16 14:55:32;;;;;;;0.60;0.37;;;;;;;;;;5041943;27;94302;-62
2023/05/16 14:58:03;;;;;;;0.23;0.20;;;;;;;;;;5040108;27;94113;-61